Terminal Aerodrome Forecast
Issued by NWS Detroit/Pontiac, MI

Home | Current Version | Previous Version | Text Only | Print | Product List | Glossary On
Versions: 1 2 3 4 5 6 7 8 9 10 11 12 13 14 15 16 17 18 19 20 21
314
FTUS43 KDTX 212104 AAA
TAFFNT
TAF AMD
KFNT 212104Z 2121/2218 12007KT 4SM -RA OVC060
     FM220100 12007KT 4SM SHRA BR SCT018 OVC028
     FM220600 VRB04KT 4SM -SHRA BR OVC008
     FM221400 34005KT 6SM BR OVC015=

USA.gov is the U.S. government's official web portal to all federal, state and local government web resources and services.